Time;durP1;ratioP1;P1;durP2;ratioP2;P2;SDS_P1;SDS_P2;PMS_P1;PMS_P2;Temp;Humidity;BMP_temperature;BMP_pressure;BME280_temperature;BME280_humidity;BME280_pressure;Samples;Min_cycle;Max_cycle;Signal;HPM_P1;HPM_P2
2023/09/08 00:01:25;;;;;;;10.30;9.27;;;20.00;99.90;;;;;;4995976;28;20033;-80
2023/09/08 00:03:51;;;;;;;11.43;9.38;;;19.80;99.90;;;;;;4992745;28;20107;-81
2023/09/08 00:06:17;;;;;;;9.77;8.63;;;19.80;99.90;;;;;;5013991;28;20124;-81
2023/09/08 00:08:43;;;;;;;10.27;8.35;;;19.70;99.90;;;;;;5013681;28;20041;-81
2023/09/08 00:11:08;;;;;;;11.77;9.05;;;19.60;99.90;;;;;;5014947;28;20049;-82
2023/09/08 00:13:34;;;;;;;11.73;9.32;;;19.50;99.90;;;;;;4976425;28;20045;-80
2023/09/08 00:16:00;;;;;;;10.45;9.35;;;19.30;99.90;;;;;;5020973;28;20045;-80
2023/09/08 00:18:26;;;;;;;10.50;9.50;;;19.20;99.90;;;;;;5003167;28;20144;-81
2023/09/08 00:20:51;;;;;;;12.98;9.85;;;19.00;99.90;;;;;;5015120;28;20081;-80
2023/09/08 00:23:17;;;;;;;11.48;10.13;;;18.80;99.90;;;;;;5028322;28;20066;-80
2023/09/08 00:25:43;;;;;;;11.80;10.45;;;18.80;99.90;;;;;;4997802;28;20485;-80
2023/09/08 00:28:08;;;;;;;10.55;9.52;;;18.80;99.90;;;;;;4997841;28;20130;-81
2023/09/08 00:30:34;;;;;;;10.20;9.13;;;18.60;99.90;;;;;;4984402;28;20044;-81
2023/09/08 00:33:00;;;;;;;11.13;9.95;;;18.60;99.90;;;;;;5013756;28;20398;-81
2023/09/08 00:35:26;;;;;;;12.50;10.25;;;18.60;99.90;;;;;;5028905;28;20098;-81
2023/09/08 00:37:51;;;;;;;13.40;10.20;;;18.50;99.90;;;;;;5025229;28;20048;-81
2023/09/08 00:40:17;;;;;;;11.23;10.13;;;18.60;99.90;;;;;;5014873;28;20041;-81
2023/09/08 00:42:43;;;;;;;11.13;9.07;;;18.50;99.90;;;;;;5014151;28;20041;-81
2023/09/08 00:45:09;;;;;;;10.80;9.70;;;18.50;99.90;;;;;;5022923;28;20038;-80
2023/09/08 00:47:35;;;;;;;11.27;10.18;;;18.50;99.90;;;;;;4997137;28;20095;-80
2023/09/08 00:50:04;;;;;;;12.07;10.05;;;18.50;99.90;;;;;;5014293;28;20037;-80
2023/09/08 00:52:32;;;;;;;14.05;9.85;;;18.40;99.90;;;;;;5030840;28;20037;-81
2023/09/08 00:54:59;;;;;;;11.95;10.60;;;18.40;99.90;;;;;;5010501;28;20041;-80
2023/09/08 00:57:25;;;;;;;11.45;10.15;;;18.40;99.90;;;;;;5014117;28;20053;-81
2023/09/08 00:59:51;;;;;;;10.98;9.88;;;18.30;99.90;;;;;;5014487;28;20053;-81
2023/09/08 01:02:16;;;;;;;11.38;10.23;;;18.30;99.90;;;;;;5030473;28;20130;-81
2023/09/08 01:04:44;;;;;;;12.35;10.73;;;18.20;99.90;;;;;;5006338;28;20409;-81
2023/09/08 01:07:10;;;;;;;11.95;10.60;;;18.10;99.90;;;;;;5013991;28;20040;-80
2023/09/08 01:09:37;;;;;;;12.23;10.20;;;18.10;99.90;;;;;;5013758;28;20524;-81
2023/09/08 01:12:07;;;;;;;10.98;9.88;;;18.00;99.90;;;;;;5030422;28;20072;-80
2023/09/08 01:14:33;;;;;;;11.90;10.57;;;18.00;99.90;;;;;;5003213;28;20037;-80
2023/09/08 01:16:59;;;;;;;12.70;10.35;;;17.90;99.90;;;;;;5030120;28;20033;-80
2023/09/08 01:19:25;;;;;;;10.95;9.90;;;17.90;99.90;;;;;;5013789;28;20076;-81
2023/09/08 01:22:29;;;;;;;12.50;10.48;;;17.80;99.90;;;;;;5013219;28;20068;-81
2023/09/08 01:25:09;;;;;;;11.95;10.68;;;17.80;99.90;;;;;;5012800;28;20049;-81
2023/09/08 01:27:37;;;;;;;12.25;10.95;;;17.80;99.90;;;;;;5013453;28;20416;-80
2023/09/08 01:30:05;;;;;;;12.35;10.68;;;17.80;99.90;;;;;;5014138;28;20462;-80
2023/09/08 01:32:32;;;;;;;12.88;10.88;;;17.70;99.90;;;;;;4997286;28;20037;-80
2023/09/08 01:34:59;;;;;;;11.90;10.20;;;17.70;99.90;;;;;;5012791;28;20060;-80
2023/09/08 01:37:25;;;;;;;12.20;10.93;;;17.70;99.90;;;;;;4983284;28;20041;-80
2023/09/08 01:39:51;;;;;;;11.85;10.75;;;17.60;99.90;;;;;;5013537;28;20045;-81
2023/09/08 01:42:17;;;;;;;11.80;10.60;;;17.60;99.90;;;;;;4996899;28;20103;-80
2023/09/08 01:44:42;;;;;;;11.75;10.55;;;17.50;99.90;;;;;;4996433;28;20171;-80
2023/09/08 01:47:08;;;;;;;12.40;10.73;;;17.60;99.90;;;;;;4997056;28;20033;-81
2023/09/08 01:49:34;;;;;;;12.32;11.13;;;17.60;99.90;;;;;;4997295;28;20515;-80
2023/09/08 01:51:59;;;;;;;13.05;11.65;;;17.60;99.90;;;;;;4980889;28;20113;-81
2023/09/08 01:54:25;;;;;;;14.57;11.43;;;17.60;99.90;;;;;;4971274;28;20413;-81
2023/09/08 01:56:51;;;;;;;13.18;11.32;;;17.60;99.90;;;;;;4980475;28;20045;-81
2023/09/08 01:59:17;;;;;;;13.07;11.60;;;17.50;99.90;;;;;;4993961;28;20046;-81
2023/09/08 02:01:42;;;;;;;12.57;11.38;;;17.50;99.90;;;;;;5005284;28;20051;-81
2023/09/08 02:04:08;;;;;;;13.93;12.48;;;17.50;99.90;;;;;;5003092;28;20042;-81
2023/09/08 02:06:34;;;;;;;12.88;11.32;;;17.40;99.90;;;;;;5006185;28;20045;-81
2023/09/08 02:08:59;;;;;;;12.45;11.18;;;17.40;99.90;;;;;;4997001;28;20512;-81
2023/09/08 02:11:25;;;;;;;12.90;11.52;;;17.40;99.90;;;;;;4996214;28;20044;-81
2023/09/08 02:13:52;;;;;;;13.00;11.63;;;17.40;99.90;;;;;;5013323;28;20814;-81
2023/09/08 02:16:18;;;;;;;12.35;11.13;;;17.40;99.90;;;;;;5015673;28;20049;-81
2023/09/08 02:18:45;;;;;;;15.60;12.65;;;17.40;99.90;;;;;;5016800;28;20567;-81
2023/09/08 02:21:11;;;;;;;12.30;10.80;;;17.40;99.90;;;;;;5004756;28;20045;-81
2023/09/08 02:23:37;;;;;;;13.27;11.90;;;17.40;99.90;;;;;;5009509;28;20137;-81
2023/09/08 02:26:03;;;;;;;12.48;11.18;;;17.50;99.90;;;;;;5016676;28;20124;-81
2023/09/08 02:28:29;;;;;;;13.52;12.15;;;17.40;99.90;;;;;;4999713;28;20128;-81
2023/09/08 02:30:55;;;;;;;14.32;12.00;;;17.40;99.90;;;;;;5016907;28;20095;-81
2023/09/08 02:33:21;;;;;;;13.00;11.70;;;17.30;99.90;;;;;;5015855;28;20071;-81
2023/09/08 02:35:47;;;;;;;13.30;12.00;;;17.30;99.90;;;;;;5017011;28;20053;-81
2023/09/08 02:38:12;;;;;;;13.93;12.52;;;17.30;99.90;;;;;;5000941;28;20037;-81
2023/09/08 02:40:38;;;;;;;13.73;12.15;;;17.20;99.90;;;;;;5000654;28;20057;-81
2023/09/08 02:43:04;;;;;;;13.98;12.15;;;17.20;99.90;;;;;;5030565;28;20116;-81
2023/09/08 02:45:30;;;;;;;16.17;13.18;;;17.20;99.90;;;;;;5008449;28;20037;-81
2023/09/08 02:47:56;;;;;;;13.50;12.20;;;17.10;99.90;;;;;;5003861;28;20103;-81
2023/09/08 02:50:22;;;;;;;13.90;12.50;;;17.10;99.90;;;;;;4995392;28;20041;-81
2023/09/08 02:52:48;;;;;;;13.63;12.30;;;17.00;99.90;;;;;;4987954;28;20050;-81
2023/09/08 02:55:14;;;;;;;14.57;12.52;;;17.00;99.90;;;;;;5016454;28;20068;-81
2023/09/08 02:57:40;;;;;;;14.57;12.68;;;17.00;99.90;;;;;;5016046;28;20052;-81
2023/09/08 03:00:07;;;;;;;13.63;12.20;;;17.00;99.90;;;;;;5016159;28;20049;-81
2023/09/08 03:02:33;;;;;;;13.65;12.35;;;17.00;99.90;;;;;;5000217;28;20155;-81
2023/09/08 03:05:00;;;;;;;14.18;12.65;;;17.00;99.90;;;;;;5032567;28;20081;-81
2023/09/08 03:07:26;;;;;;;14.10;12.68;;;17.00;99.90;;;;;;5028807;28;20483;-81
2023/09/08 03:09:52;;;;;;;13.50;12.18;;;17.00;99.90;;;;;;4992318;28;20037;-81
2023/09/08 03:12:18;;;;;;;13.00;11.70;;;17.00;99.90;;;;;;4993227;28;20034;-81
2023/09/08 03:14:44;;;;;;;13.48;12.00;;;17.00;99.90;;;;;;5012340;28;20052;-81
2023/09/08 03:17:11;;;;;;;13.68;12.27;;;16.90;99.90;;;;;;5032070;28;20512;-82
2023/09/08 03:19:36;;;;;;;14.13;12.63;;;16.90;99.90;;;;;;4980384;28;20049;-81
2023/09/08 03:22:03;;;;;;;13.80;12.30;;;16.90;99.90;;;;;;4999395;28;20041;-81
2023/09/08 03:24:28;;;;;;;13.73;12.15;;;16.90;99.90;;;;;;4999123;28;20037;-81
2023/09/08 03:26:54;;;;;;;14.10;12.60;;;16.90;99.90;;;;;;4998504;28;20058;-81
2023/09/08 03:29:20;;;;;;;14.82;12.93;;;16.80;99.90;;;;;;4999640;28;20132;-81
2023/09/08 03:31:45;;;;;;;14.82;13.23;;;16.80;99.90;;;;;;5016739;28;20049;-81
2023/09/08 03:34:11;;;;;;;14.75;12.55;;;16.80;99.90;;;;;;4999733;28;20052;-81
2023/09/08 03:36:37;;;;;;;16.35;13.13;;;16.80;99.90;;;;;;5016113;28;20041;-81
2023/09/08 03:39:03;;;;;;;14.25;12.65;;;16.80;99.90;;;;;;4999711;28;20064;-81
2023/09/08 03:41:29;;;;;;;14.50;13.00;;;16.80;99.90;;;;;;5000246;28;20039;-81
2023/09/08 03:43:55;;;;;;;18.30;14.35;;;16.70;99.90;;;;;;5015918;28;20481;-81
2023/09/08 03:46:20;;;;;;;15.43;13.93;;;16.70;99.90;;;;;;4998705;28;20056;-81
2023/09/08 03:48:46;;;;;;;15.70;13.63;;;16.70;99.90;;;;;;4999032;28;20053;-81
2023/09/08 03:51:12;;;;;;;16.58;14.85;;;16.70;99.90;;;;;;5032042;28;20045;-81
2023/09/08 03:53:38;;;;;;;14.77;13.30;;;16.70;99.90;;;;;;4999338;28;20060;-81
2023/09/08 03:56:03;;;;;;;15.88;14.38;;;16.70;99.90;;;;;;5031803;28;20041;-81
2023/09/08 03:58:29;;;;;;;15.15;13.48;;;16.70;99.90;;;;;;5012692;28;20034;-81
2023/09/08 04:00:55;;;;;;;14.80;13.23;;;16.80;99.90;;;;;;5015513;28;20041;-81
2023/09/08 04:03:21;;;;;;;15.88;14.10;;;16.80;99.90;;;;;;5015544;28;20069;-81
2023/09/08 04:05:46;;;;;;;16.55;14.93;;;16.80;99.90;;;;;;5015417;28;20045;-81
2023/09/08 04:08:13;;;;;;;15.90;14.30;;;16.80;99.90;;;;;;5031597;28;20034;-81
2023/09/08 04:10:38;;;;;;;16.40;14.32;;;16.70;99.90;;;;;;5015377;28;20461;-81
2023/09/08 04:13:04;;;;;;;15.57;13.00;;;16.70;99.90;;;;;;4991252;28;20092;-81
2023/09/08 04:15:30;;;;;;;15.38;13.85;;;16.70;99.90;;;;;;4997320;28;20092;-81
2023/09/08 04:17:57;;;;;;;15.10;13.60;;;16.70;99.90;;;;;;4982430;28;20045;-81
2023/09/08 04:20:23;;;;;;;16.52;14.30;;;16.70;99.90;;;;;;5014535;28;20045;-82
2023/09/08 04:22:49;;;;;;;15.88;13.75;;;16.70;99.90;;;;;;4981833;28;20052;-81
2023/09/08 04:25:15;;;;;;;15.77;14.18;;;16.60;99.90;;;;;;4997852;28;20099;-81
2023/09/08 04:27:41;;;;;;;16.45;13.20;;;16.60;99.90;;;;;;4997487;28;20053;-81
2023/09/08 04:30:07;;;;;;;16.10;13.75;;;16.50;99.90;;;;;;5013640;28;20046;-81
2023/09/08 04:32:33;;;;;;;16.23;14.10;;;16.50;99.90;;;;;;5012359;28;20038;-81
2023/09/08 04:34:58;;;;;;;16.98;15.18;;;16.50;99.90;;;;;;5012673;28;20048;-81
2023/09/08 04:37:24;;;;;;;17.60;15.02;;;16.50;99.90;;;;;;4996591;28;20128;-81
2023/09/08 04:39:50;;;;;;;17.38;15.38;;;16.40;99.90;;;;;;5029168;28;20520;-81
2023/09/08 04:42:15;;;;;;;17.50;14.15;;;16.30;99.90;;;;;;4996575;28;20095;-81
2023/09/08 04:44:41;;;;;;;15.05;13.02;;;16.30;99.90;;;;;;4996361;28;20068;-81
2023/09/08 04:47:07;;;;;;;15.55;13.95;;;16.40;99.90;;;;;;4997922;28;20222;-82
2023/09/08 04:49:33;;;;;;;15.93;14.30;;;16.40;99.90;;;;;;4989023;28;20053;-81
2023/09/08 04:51:58;;;;;;;14.40;12.90;;;16.30;99.90;;;;;;4996655;28;20049;-81
2023/09/08 04:54:27;;;;;;;14.93;12.38;;;16.30;99.90;;;;;;4993501;28;20033;-81
2023/09/08 04:56:53;;;;;;;15.18;13.70;;;16.30;99.90;;;;;;5014667;28;20038;-81
2023/09/08 04:59:19;;;;;;;13.48;12.07;;;16.20;99.90;;;;;;4998250;28;20037;-81
2023/09/08 05:01:45;;;;;;;14.57;13.05;;;16.20;99.90;;;;;;5009798;28;20175;-81
2023/09/08 05:04:11;;;;;;;14.10;12.70;;;16.10;99.90;;;;;;4980998;28;20044;-81
2023/09/08 05:06:37;;;;;;;15.27;13.70;;;16.10;99.90;;;;;;4986395;28;20051;-81
2023/09/08 05:09:03;;;;;;;15.40;13.82;;;16.10;99.90;;;;;;4998205;28;20033;-81
2023/09/08 05:11:28;;;;;;;15.02;13.23;;;16.20;99.90;;;;;;5014108;28;20049;-81
2023/09/08 05:13:54;;;;;;;16.33;14.63;;;16.20;99.90;;;;;;4997837;28;20036;-81
2023/09/08 05:16:35;;;;;;;16.48;14.25;;;16.20;99.90;;;;;;4981518;28;20072;-81
2023/09/08 05:19:01;;;;;;;16.40;14.52;;;16.20;99.90;;;;;;5013945;28;20041;-81
2023/09/08 05:21:27;;;;;;;15.13;13.52;;;16.20;99.90;;;;;;4981626;28;20045;-81
2023/09/08 05:23:53;;;;;;;15.77;14.18;;;16.20;99.90;;;;;;4981790;28;20037;-81
2023/09/08 05:26:18;;;;;;;14.32;12.93;;;16.30;99.90;;;;;;4995242;28;20037;-81
2023/09/08 05:28:44;;;;;;;15.40;13.68;;;16.20;99.90;;;;;;4988578;28;20480;-81
2023/09/08 05:31:10;;;;;;;17.25;13.93;;;16.30;99.90;;;;;;4997478;28;20120;-81
2023/09/08 05:33:35;;;;;;;16.58;14.00;;;16.30;99.90;;;;;;4997169;28;20033;-80
2023/09/08 05:36:01;;;;;;;16.65;14.40;;;16.40;99.90;;;;;;5013195;28;20045;-80
2023/09/08 05:38:28;;;;;;;16.27;13.18;;;16.40;99.90;;;;;;4976072;28;20103;-80
2023/09/08 05:40:54;;;;;;;16.45;14.75;;;16.40;99.90;;;;;;5002598;28;20042;-82
2023/09/08 05:43:21;;;;;;;17.90;13.95;;;16.50;99.90;;;;;;4981331;28;20052;-83
2023/09/08 05:45:46;;;;;;;18.65;15.57;;;16.60;99.90;;;;;;4996879;28;20053;-82
2023/09/08 05:48:12;;;;;;;19.60;14.80;;;16.60;99.90;;;;;;5003496;28;20042;-82
2023/09/08 05:50:38;;;;;;;16.70;15.00;;;16.70;99.90;;;;;;5013051;28;20044;-82
2023/09/08 05:53:03;;;;;;;15.68;14.00;;;16.70;99.90;;;;;;5013696;28;20033;-82
2023/09/08 05:55:29;;;;;;;16.15;14.52;;;16.80;99.90;;;;;;5013844;28;20040;-82
2023/09/08 05:57:55;;;;;;;17.75;15.68;;;16.90;99.90;;;;;;4998234;28;20511;-82
2023/09/08 06:00:22;;;;;;;18.13;15.13;;;16.90;99.90;;;;;;5014451;28;20049;-82
2023/09/08 06:02:47;;;;;;;16.83;14.73;;;17.00;99.90;;;;;;4996600;28;20040;-82
2023/09/08 06:05:13;;;;;;;18.20;14.70;;;17.10;99.90;;;;;;5019800;28;20029;-82
2023/09/08 06:07:39;;;;;;;19.50;14.75;;;17.10;99.90;;;;;;5020849;28;20049;-82
2023/09/08 06:10:05;;;;;;;16.63;14.90;;;17.20;99.90;;;;;;5031432;28;20061;-82
2023/09/08 06:12:31;;;;;;;16.45;14.52;;;17.20;99.90;;;;;;4997845;28;20037;-82
2023/09/08 06:14:56;;;;;;;16.13;14.38;;;17.30;99.90;;;;;;5009206;28;20048;-82
2023/09/08 06:17:22;;;;;;;15.48;13.75;;;17.40;99.90;;;;;;5030961;28;20046;-82
2023/09/08 06:19:48;;;;;;;15.48;13.88;;;17.40;99.90;;;;;;5014876;28;20048;-82
2023/09/08 06:22:14;;;;;;;15.02;13.43;;;17.50;99.90;;;;;;5014857;28;20049;-82
2023/09/08 06:24:40;;;;;;;15.23;13.48;;;17.60;99.90;;;;;;4998865;28;20111;-82
2023/09/08 06:27:06;;;;;;;15.95;13.23;;;17.70;99.90;;;;;;4977742;28;20057;-81
2023/09/08 06:29:32;;;;;;;17.15;12.60;;;17.70;99.90;;;;;;4998664;28;20474;-82
2023/09/08 06:31:58;;;;;;;20.08;14.73;;;17.80;99.90;;;;;;4998701;28;20077;-82
2023/09/08 06:34:24;;;;;;;16.35;14.55;;;17.90;99.90;;;;;;5009181;28;20128;-81
2023/09/08 06:36:49;;;;;;;15.07;13.57;;;18.00;99.90;;;;;;4996431;28;20140;-82
2023/09/08 06:39:15;;;;;;;15.43;13.82;;;18.00;99.90;;;;;;4997100;28;20041;-81
2023/09/08 06:41:41;;;;;;;18.85;14.30;;;18.10;99.90;;;;;;4994094;28;20469;-81
2023/09/08 06:44:07;;;;;;;15.20;11.52;;;18.10;99.90;;;;;;4998011;28;20030;-81
2023/09/08 06:46:32;;;;;;;16.30;13.93;;;18.20;99.90;;;;;;4998994;28;20095;-81
2023/09/08 06:48:58;;;;;;;15.20;12.93;;;18.20;99.90;;;;;;5008924;28;20492;-81
2023/09/08 06:51:24;;;;;;;15.63;13.85;;;18.30;99.90;;;;;;4995536;28;20037;-81
2023/09/08 06:53:55;;;;;;;15.18;13.52;;;18.40;99.90;;;;;;5013222;28;20075;-81
2023/09/08 06:56:21;;;;;;;16.60;14.85;;;18.50;99.90;;;;;;5029614;28;20503;-81
2023/09/08 06:58:47;;;;;;;17.15;14.63;;;18.60;99.90;;;;;;4995510;28;20068;-81
2023/09/08 07:01:12;;;;;;;15.63;14.02;;;18.70;99.90;;;;;;4992968;28;20107;-81
2023/09/08 07:03:38;;;;;;;18.85;14.07;;;18.70;99.90;;;;;;4989773;28;20041;-81
2023/09/08 07:06:04;;;;;;;17.02;13.65;;;18.80;99.90;;;;;;4982630;28;20037;-82
2023/09/08 07:08:29;;;;;;;14.32;12.80;;;18.90;99.90;;;;;;4980954;28;20044;-81
2023/09/08 07:10:55;;;;;;;15.98;13.73;;;18.90;99.90;;;;;;4997251;28;20064;-81
2023/09/08 07:13:21;;;;;;;15.88;14.27;;;19.00;99.90;;;;;;5033116;28;20037;-81
2023/09/08 07:15:47;;;;;;;13.88;12.48;;;19.10;99.90;;;;;;5032630;28;20045;-82
2023/09/08 07:18:12;;;;;;;13.55;12.15;;;19.20;99.90;;;;;;5031192;28;20080;-82
2023/09/08 07:20:38;;;;;;;13.30;12.00;;;19.30;99.90;;;;;;4991829;28;20040;-82
2023/09/08 07:23:04;;;;;;;13.88;11.88;;;19.40;99.90;;;;;;4997730;28;20547;-81
2023/09/08 07:25:29;;;;;;;14.75;12.70;;;19.50;99.90;;;;;;5031165;28;20064;-81
2023/09/08 07:27:55;;;;;;;13.75;12.35;;;19.60;99.90;;;;;;4980772;28;20148;-83
2023/09/08 07:30:21;;;;;;;18.20;12.63;;;19.70;99.90;;;;;;5028424;28;20052;-82
2023/09/08 07:32:46;;;;;;;13.65;12.30;;;19.80;99.90;;;;;;5033074;28;20041;-82
2023/09/08 07:35:14;;;;;;;13.40;11.57;;;19.90;99.90;;;;;;5011751;28;20038;-82
2023/09/08 07:37:41;;;;;;;12.32;11.07;;;20.00;99.90;;;;;;5010692;28;20385;-82
2023/09/08 07:40:09;;;;;;;11.55;10.35;;;20.10;99.90;;;;;;5032951;28;20046;-82
2023/09/08 07:42:35;;;;;;;13.60;11.88;;;20.30;99.90;;;;;;5008466;28;20053;-81
2023/09/08 07:45:00;;;;;;;13.63;12.23;;;20.30;99.90;;;;;;4980744;28;20104;-81
2023/09/08 07:47:26;;;;;;;12.43;11.20;;;20.40;99.90;;;;;;5013823;28;20045;-81
2023/09/08 07:49:52;;;;;;;12.98;11.68;;;20.50;99.90;;;;;;4999838;28;20037;-81
2023/09/08 07:52:21;;;;;;;12.05;10.85;;;20.60;99.90;;;;;;4997224;28;20086;-83
2023/09/08 07:54:47;;;;;;;13.90;10.85;;;20.70;99.90;;;;;;5013482;28;20106;-82
2023/09/08 07:57:13;;;;;;;11.77;10.63;;;20.90;99.90;;;;;;5019220;28;20112;-82
2023/09/08 07:59:39;;;;;;;12.05;10.73;;;21.00;99.90;;;;;;5014843;28;20512;-81
2023/09/08 08:02:05;;;;;;;13.32;9.77;;;21.10;99.90;;;;;;5026118;28;20037;-82
2023/09/08 08:04:30;;;;;;;12.85;10.50;;;21.30;99.90;;;;;;5030395;28;20525;-83
2023/09/08 08:06:56;;;;;;;11.65;10.40;;;21.40;99.90;;;;;;5023130;28;20045;-83
2023/09/08 08:09:22;;;;;;;10.82;9.70;;;21.50;99.90;;;;;;4999048;28;20440;-83
2023/09/08 08:11:47;;;;;;;10.93;9.75;;;21.60;99.90;;;;;;5014851;28;20386;-82
2023/09/08 08:14:13;;;;;;;14.40;10.65;;;21.80;99.90;;;;;;5027173;28;20037;-82
2023/09/08 08:16:39;;;;;;;9.85;8.85;;;21.90;99.90;;;;;;5025483;28;20107;-82
2023/09/08 08:19:05;;;;;;;10.98;9.80;;;22.00;99.90;;;;;;5015516;28;20045;-82
2023/09/08 08:21:31;;;;;;;11.98;10.40;;;22.20;99.90;;;;;;5006689;28;20048;-82
2023/09/08 08:23:57;;;;;;;11.15;10.05;;;22.30;99.90;;;;;;5008918;28;20038;-81
2023/09/08 08:26:27;;;;;;;9.43;8.40;;;22.40;99.90;;;;;;4987616;28;20072;-81
2023/09/08 08:28:53;;;;;;;9.48;8.57;;;22.50;99.90;;;;;;5015143;28;20065;-82
2023/09/08 08:31:20;;;;;;;10.95;8.60;;;22.70;99.90;;;;;;5014275;28;20103;-81
2023/09/08 08:33:45;;;;;;;9.90;8.95;;;22.80;99.90;;;;;;5013446;28;20417;-82
2023/09/08 08:36:11;;;;;;;10.50;9.50;;;22.90;99.90;;;;;;5028343;28;20180;-83
2023/09/08 08:38:37;;;;;;;9.50;8.60;;;23.00;99.90;;;;;;5010499;28;20042;-82
2023/09/08 08:41:04;;;;;;;8.63;7.53;;;23.20;99.90;;;;;;5029170;28;20107;-82
2023/09/08 08:43:31;;;;;;;7.65;6.47;;;23.40;99.90;;;;;;5011257;28;20045;-81
2023/09/08 08:45:59;;;;;;;7.90;6.97;;;23.60;99.90;;;;;;5013176;28;20095;-81
2023/09/08 08:48:27;;;;;;;8.65;6.40;;;23.60;99.90;;;;;;4987745;28;20038;-82
2023/09/08 08:50:53;;;;;;;7.30;6.60;;;23.80;99.90;;;;;;5012212;28;20037;-80
2023/09/08 08:53:20;;;;;;;7.40;6.68;;;23.90;99.90;;;;;;5028512;28;20062;-82
2023/09/08 08:55:48;;;;;;;7.22;6.53;;;24.00;99.90;;;;;;5021102;28;20048;-81
2023/09/08 08:58:15;;;;;;;7.65;6.85;;;24.10;99.90;;;;;;4999913;28;20045;-82
2023/09/08 09:00:41;;;;;;;6.80;6.20;;;24.10;99.90;;;;;;5020897;28;20041;-81
2023/09/08 09:03:08;;;;;;;7.85;6.90;;;24.30;99.90;;;;;;5002275;28;20808;-81
2023/09/08 09:05:36;;;;;;;8.68;6.75;;;24.40;99.90;;;;;;4987818;28;20381;-82
2023/09/08 09:08:04;;;;;;;7.65;6.18;;;24.50;99.90;;;;;;4987983;28;20049;-81
2023/09/08 09:10:31;;;;;;;6.85;5.88;;;24.60;99.90;;;;;;5017792;28;20045;-82
2023/09/08 09:12:57;;;;;;;7.72;6.28;;;24.70;99.90;;;;;;5004203;28;21517;-81
2023/09/08 09:15:29;;;;;;;6.82;6.13;;;24.80;99.90;;;;;;5018616;28;20124;-81
2023/09/08 09:18:06;;;;;;;9.70;6.50;;;24.90;99.90;;;;;;5019899;28;21497;-81
2023/09/08 09:20:32;;;;;;;8.88;7.43;;;25.00;99.90;;;;;;5019573;28;20448;-81
2023/09/08 09:22:58;;;;;;;6.97;6.28;;;25.10;99.90;;;;;;4986766;28;20050;-81
2023/09/08 09:25:26;;;;;;;7.45;6.75;;;25.20;99.90;;;;;;5018579;28;20050;-82
2023/09/08 09:27:54;;;;;;;7.13;6.07;;;25.30;99.90;;;;;;5014984;28;20067;-80
2023/09/08 09:30:20;;;;;;;6.30;5.80;;;25.40;99.90;;;;;;5003234;28;20135;-81
2023/09/08 09:32:49;;;;;;;7.03;6.32;;;25.50;99.90;;;;;;4972666;28;20370;-81
2023/09/08 09:35:15;;;;;;;9.60;6.68;;;25.60;99.90;;;;;;5002647;28;20049;-81
2023/09/08 09:37:41;;;;;;;7.07;6.38;;;25.70;99.90;;;;;;5022156;28;21857;-81
2023/09/08 09:40:10;;;;;;;7.10;6.03;;;25.90;99.90;;;;;;4983952;28;20048;-81
2023/09/08 09:42:40;;;;;;;7.03;6.20;;;25.90;99.90;;;;;;4988101;28;20061;-80
2023/09/08 09:45:06;;;;;;;8.25;6.70;;;26.00;99.90;;;;;;5002699;28;20052;-81
2023/09/08 09:47:32;;;;;;;6.80;6.07;;;26.10;99.90;;;;;;5002342;28;20723;-81
2023/09/08 09:49:58;;;;;;;6.05;5.45;;;26.10;99.90;;;;;;5017237;28;20041;-81
2023/09/08 09:52:26;;;;;;;6.50;5.90;;;26.20;99.90;;;;;;4972992;28;20030;-81
2023/09/08 09:54:54;;;;;;;8.98;6.57;;;26.20;99.90;;;;;;5011058;28;20124;-80
2023/09/08 09:57:22;;;;;;;8.43;6.70;;;26.30;99.90;;;;;;5013139;28;20041;-80
2023/09/08 09:59:50;;;;;;;6.97;5.95;;;26.30;99.90;;;;;;5017375;28;20083;-81
2023/09/08 10:02:21;;;;;;;6.90;5.97;;;26.40;99.90;;;;;;5018976;28;20076;-81
2023/09/08 10:04:49;;;;;;;6.25;5.65;;;26.50;99.90;;;;;;5001771;28;20053;-81
2023/09/08 10:07:16;;;;;;;6.25;5.68;;;26.50;99.90;;;;;;5015202;28;20038;-81
2023/09/08 10:09:42;;;;;;;6.05;5.43;;;26.60;99.90;;;;;;5004116;28;20042;-81
2023/09/08 10:12:12;;;;;;;7.60;5.45;;;26.60;99.90;;;;;;5000778;28;21172;-81
2023/09/08 10:14:41;;;;;;;8.60;6.13;;;26.70;99.90;;;;;;5003383;28;20057;-81
2023/09/08 10:17:14;;;;;;;7.07;6.38;;;26.80;99.90;;;;;;4987761;28;20076;-80
2023/09/08 10:19:41;;;;;;;7.95;5.95;;;26.80;99.90;;;;;;5025724;28;20098;-81
2023/09/08 10:22:13;;;;;;;10.00;6.43;;;26.90;99.90;;;;;;5022361;28;20056;-81
2023/09/08 10:24:39;;;;;;;;;;;27.00;99.90;;;;;;5006230;28;20061;-80
2023/09/08 10:27:10;;;;;;;18.25;16.70;;;27.00;99.90;;;;;;5023142;28;19917;-81
2023/09/08 10:29:37;;;;;;;8.98;6.22;;;27.10;99.90;;;;;;4993219;28;20049;-80
2023/09/08 10:32:04;;;;;;;7.18;6.35;;;27.20;99.90;;;;;;5011666;28;20044;-80
2023/09/08 10:34:31;;;;;;;6.38;5.72;;;27.30;99.90;;;;;;5011239;28;20045;-80
2023/09/08 10:36:57;;;;;;;7.25;5.55;;;27.20;99.90;;;;;;5011540;28;20435;-80
2023/09/08 10:39:30;;;;;;;6.60;5.90;;;27.30;99.90;;;;;;5033322;28;20401;-81
2023/09/08 10:42:25;;;;;;;6.68;6.07;;;27.30;99.90;;;;;;5012940;28;20049;-81
2023/09/08 10:44:57;;;;;;;8.55;6.03;;;27.30;99.90;;;;;;5014076;28;20446;-81
2023/09/08 10:47:34;;;;;;;6.60;5.95;;;27.40;99.90;;;;;;5036810;28;20113;-81
2023/09/08 10:50:00;;;;;;;6.70;5.82;;;27.50;99.90;;;;;;5030779;28;20033;-81
2023/09/08 10:52:26;;;;;;;6.70;6.00;;;27.60;99.90;;;;;;4997019;28;20044;-82
2023/09/08 10:54:53;;;;;;;7.20;5.75;;;27.60;99.90;;;;;;5028099;28;20556;-81
2023/09/08 10:57:25;;;;;;;6.53;5.95;;;27.70;99.90;;;;;;5032818;28;20091;-82
2023/09/08 10:59:53;;;;;;;6.32;5.63;;;27.80;99.90;;;;;;5015536;28;20101;-80
2023/09/08 11:02:41;;;;;;;6.22;5.65;;;27.90;99.90;;;;;;5028661;28;20049;-80
2023/09/08 11:05:15;;;;;;;7.78;5.50;;;27.90;99.90;;;;;;5027684;28;20795;-81
2023/09/08 11:07:45;;;;;;;6.95;5.68;;;28.00;99.90;;;;;;5002598;28;20045;-82
2023/09/08 11:10:12;;;;;;;6.60;6.00;;;28.00;99.90;;;;;;5019522;28;20522;-81
2023/09/08 11:12:38;;;;;;;6.85;5.35;;;28.10;99.90;;;;;;5018981;28;20314;-80
2023/09/08 11:15:08;;;;;;;6.50;5.60;;;28.10;99.90;;;;;;5030546;28;20053;-81
2023/09/08 11:17:35;;;;;;;7.50;5.28;;;28.20;99.90;;;;;;5015373;28;20123;-81
2023/09/08 11:20:08;;;;;;;5.82;5.10;;;28.20;99.90;;;;;;5032235;28;20596;-82
2023/09/08 11:22:34;;;;;;;5.57;4.90;;;28.30;99.90;;;;;;5027450;28;20040;-80
2023/09/08 11:25:04;;;;;;;8.30;5.60;;;28.40;99.90;;;;;;5032834;28;20425;-81
2023/09/08 11:27:31;;;;;;;7.32;4.72;;;28.40;99.90;;;;;;5040322;28;20083;-81
2023/09/08 11:29:57;;;;;;;5.85;5.25;;;28.50;99.90;;;;;;5049943;28;20045;-81
2023/09/08 11:32:23;;;;;;;6.05;5.45;;;28.50;98.60;;;;;;5033377;28;20144;-81
2023/09/08 11:34:49;;;;;;;7.05;5.28;;;28.50;97.80;;;;;;5029889;28;20076;-81
2023/09/08 11:37:18;;;;;;;6.78;5.20;;;28.50;97.20;;;;;;5017225;28;20217;-81
2023/09/08 11:39:44;;;;;;;6.45;5.60;;;28.60;94.80;;;;;;5049848;28;20045;-81
2023/09/08 11:42:14;;;;;;;6.65;5.20;;;28.70;93.60;;;;;;4997696;28;20152;-80
2023/09/08 11:44:40;;;;;;;8.57;5.35;;;28.80;87.70;;;;;;5023740;28;20029;-81
2023/09/08 11:47:09;;;;;;;8.52;5.50;;;28.80;89.20;;;;;;5009714;28;20053;-80
2023/09/08 11:49:41;;;;;;;6.22;5.25;;;28.80;83.60;;;;;;5032798;28;20145;-81
2023/09/08 11:52:07;;;;;;;6.70;5.13;;;28.80;84.90;;;;;;5032172;28;20052;-81
2023/09/08 11:54:35;;;;;;;4.95;4.53;;;28.90;88.50;;;;;;5030233;28;20119;-81
2023/09/08 11:57:03;;;;;;;6.35;5.07;;;28.90;90.00;;;;;;5031492;28;20033;-81
2023/09/08 11:59:32;;;;;;;6.28;5.53;;;29.00;85.60;;;;;;5026570;28;20034;-81
2023/09/08 12:01:58;;;;;;;6.47;5.45;;;29.10;90.30;;;;;;5012499;28;20041;-81
2023/09/08 12:04:24;;;;;;;5.97;5.47;;;29.10;90.00;;;;;;5031906;28;20051;-81
2023/09/08 12:06:53;;;;;;;6.55;5.05;;;29.10;80.90;;;;;;5029650;28;20041;-80
2023/09/08 12:09:20;;;;;;;6.35;4.88;;;29.10;86.00;;;;;;5015586;28;20509;-82
2023/09/08 12:11:46;;;;;;;5.43;4.93;;;29.20;82.20;;;;;;5017843;28;20371;-79
2023/09/08 12:14:13;;;;;;;6.30;5.25;;;29.20;84.60;;;;;;5000855;28;20073;-81
2023/09/08 12:16:40;;;;;;;5.65;5.15;;;29.20;86.20;;;;;;5002447;28;20126;-82
2023/09/08 12:19:06;;;;;;;7.50;5.07;;;29.30;86.60;;;;;;5030830;28;20052;-81
2023/09/08 12:21:53;;;;;;;6.78;5.55;;;29.30;86.30;;;;;;5004351;28;20492;-82
2023/09/08 12:24:18;;;;;;;6.60;5.50;;;29.30;84.50;;;;;;5024923;28;20396;-81
2023/09/08 12:26:44;;;;;;;7.30;5.63;;;29.30;85.50;;;;;;5028040;28;20041;-82
2023/09/08 12:29:13;;;;;;;7.43;5.53;;;29.40;85.60;;;;;;5031531;28;20058;-81
2023/09/08 12:31:39;;;;;;;6.07;5.13;;;29.30;80.10;;;;;;4993631;28;20389;-82